createdAt,value
2019-03-04T00:00:50.196Z,15.67
2019-03-04T00:03:19.166Z,17.77
2019-03-04T00:05:48.636Z,12.77
2019-03-04T00:08:17.600Z,18.33
2019-03-04T00:10:46.401Z,18.97
2019-03-04T00:13:15.132Z,19.17
2019-03-04T00:15:44.161Z,15.83
2019-03-04T00:18:13.080Z,11.30
2019-03-04T00:20:41.834Z,15.73
2019-03-04T00:23:10.719Z,14.03
2019-03-04T00:25:39.793Z,15.17
2019-03-04T00:28:08.721Z,15.37
2019-03-04T00:30:37.557Z,15.13
2019-03-04T00:33:06.540Z,18.07
2019-03-04T00:35:35.486Z,14.70
2019-03-04T00:38:04.523Z,16.13
2019-03-04T00:40:33.572Z,15.40
2019-03-04T00:43:03.091Z,15.33
2019-03-04T00:45:33.154Z,17.73
2019-03-04T00:48:02.231Z,13.97
2019-03-04T00:50:31.284Z,16.53
2019-03-04T00:53:00.444Z,14.03
2019-03-04T00:55:29.378Z,13.73
2019-03-04T00:57:58.268Z,14.93
2019-03-04T01:00:27.298Z,16.17
2019-03-04T01:02:56.048Z,16.37
2019-03-04T01:05:24.843Z,14.13
2019-03-04T01:07:53.751Z,16.83
2019-03-04T01:10:22.688Z,15.07
2019-03-04T01:12:51.870Z,15.20
2019-03-04T01:15:22.493Z,19.10
2019-03-04T01:17:51.720Z,12.70
2019-03-04T01:20:20.483Z,12.73
2019-03-04T01:22:49.636Z,12.40
2019-03-04T01:25:18.823Z,11.53
2019-03-04T01:27:47.691Z,11.90
2019-03-04T01:30:21.445Z,12.07
2019-03-04T01:32:50.846Z,11.67
2019-03-04T01:35:20.209Z,13.27
2019-03-04T01:37:49.030Z,12.07
2019-03-04T01:40:19.452Z,13.53
2019-03-04T01:42:48.387Z,13.93
2019-03-04T01:45:18.134Z,10.07
2019-03-04T01:47:48.148Z,11.20
2019-03-04T01:50:17.586Z,14.03
2019-03-04T01:52:46.781Z,13.10
2019-03-04T01:55:16.369Z,11.53
2019-03-04T01:57:45.286Z,14.57
2019-03-04T02:00:18.427Z,11.07
2019-03-04T02:02:47.426Z,15.10
2019-03-04T02:05:17.036Z,14.60
2019-03-04T02:07:45.953Z,11.73
2019-03-04T02:10:16.629Z,13.53
2019-03-04T02:12:45.598Z,14.03
2019-03-04T02:15:16.293Z,12.20
2019-03-04T02:17:45.581Z,12.83
2019-03-04T02:20:15.881Z,11.27
2019-03-04T02:22:45.936Z,12.97
2019-03-04T02:25:16.535Z,15.33
2019-03-04T02:27:51.666Z,11.20
2019-03-04T02:30:23.089Z,11.83
2019-03-04T02:32:51.993Z,12.07
2019-03-04T02:35:20.857Z,11.33
2019-03-04T02:37:49.687Z,11.00
2019-03-04T02:40:18.724Z,9.83
2019-03-04T02:42:47.612Z,11.17
2019-03-04T02:45:17.438Z,13.77
2019-03-04T02:47:46.611Z,9.97
2019-03-04T02:50:15.794Z,10.93
2019-03-04T02:52:44.851Z,7.87
2019-03-04T02:55:14.873Z,8.00
2019-03-04T02:57:43.673Z,8.80
2019-03-04T03:00:13.716Z,13.43
2019-03-04T03:02:42.634Z,8.73
2019-03-04T03:05:11.427Z,7.77
2019-03-04T03:07:40.607Z,9.97
2019-03-04T03:10:09.618Z,7.93
2019-03-04T03:12:38.725Z,6.63
2019-03-04T03:15:07.894Z,9.23
2019-03-04T03:17:36.801Z,7.23
2019-03-04T03:20:06.500Z,9.23
2019-03-04T03:22:35.322Z,7.97
2019-03-04T03:25:04.684Z,10.20
2019-03-04T03:27:33.582Z,8.33
2019-03-04T03:30:02.338Z,6.50
2019-03-04T03:32:31.309Z,6.73
2019-03-04T03:35:00.552Z,5.70
2019-03-04T03:37:29.481Z,6.27
2019-03-04T03:39:58.340Z,7.27
2019-03-04T03:42:27.455Z,5.40
2019-03-04T03:44:56.293Z,6.70
2019-03-04T03:47:25.142Z,5.53
2019-03-04T03:49:53.970Z,4.43
2019-03-04T03:52:22.717Z,6.00
2019-03-04T03:54:51.756Z,5.10
2019-03-04T03:57:20.801Z,5.10
2019-03-04T03:59:49.634Z,4.40
2019-03-04T04:02:18.478Z,6.43
2019-03-04T04:04:47.321Z,4.60
2019-03-04T04:07:16.152Z,3.80
2019-03-04T04:09:45.455Z,4.43
2019-03-04T04:12:14.176Z,4.00
2019-03-04T04:14:42.939Z,4.30
2019-03-04T04:17:11.756Z,4.27
2019-03-04T04:19:40.606Z,4.23
2019-03-04T04:22:09.332Z,3.60
2019-03-04T04:24:38.144Z,3.47
2019-03-04T04:27:07.257Z,4.07
2019-03-04T04:29:37.862Z,4.27
2019-03-04T04:32:06.700Z,3.77
2019-03-04T04:34:35.501Z,3.63
2019-03-04T04:37:04.987Z,3.30
2019-03-04T04:39:33.725Z,3.03
2019-03-04T04:42:02.669Z,2.80
2019-03-04T04:44:31.584Z,3.70
2019-03-04T04:47:02.749Z,4.30
2019-03-04T04:49:32.945Z,5.07
2019-03-04T04:52:01.809Z,2.90
2019-03-04T04:54:30.557Z,3.23
2019-03-04T04:56:59.517Z,2.50
2019-03-04T04:59:28.303Z,2.43
2019-03-04T05:01:57.273Z,2.63
2019-03-04T05:04:26.154Z,2.70
2019-03-04T05:06:55.142Z,2.80
2019-03-04T05:09:23.865Z,3.27
2019-03-04T05:11:53.040Z,3.90
2019-03-04T05:14:21.857Z,4.07
2019-03-04T05:16:50.665Z,3.03
2019-03-04T05:19:19.565Z,2.60
2019-03-04T05:21:48.369Z,3.50
2019-03-04T05:24:17.337Z,3.07
2019-03-04T05:26:46.188Z,4.20
2019-03-04T05:29:14.952Z,2.80
2019-03-04T05:31:43.861Z,3.37
2019-03-04T05:34:12.636Z,3.60
2019-03-04T05:36:41.740Z,3.00
2019-03-04T05:39:10.912Z,5.77
2019-03-04T05:41:39.680Z,3.63
2019-03-04T05:44:08.554Z,3.10
2019-03-04T05:46:37.404Z,2.50
2019-03-04T05:49:06.404Z,6.57
2019-03-04T05:51:35.147Z,4.47
2019-03-04T05:54:03.938Z,4.40
2019-03-04T05:56:32.785Z,2.50
2019-03-04T05:59:01.584Z,1.97
2019-03-04T06:01:32.505Z,2.27
2019-03-04T06:04:04.210Z,3.07
2019-03-04T06:06:50.965Z,3.27
2019-03-04T06:09:20.064Z,2.23
2019-03-04T06:11:48.807Z,4.80
2019-03-04T06:14:17.561Z,2.27
2019-03-04T06:16:47.620Z,2.77
2019-03-04T06:19:16.560Z,2.07
2019-03-04T06:21:45.372Z,2.33
2019-03-04T06:24:14.126Z,2.57
2019-03-04T06:26:43.062Z,1.63
2019-03-04T06:29:11.850Z,3.03
2019-03-04T06:31:40.925Z,3.90
2019-03-04T06:34:10.101Z,2.10
2019-03-04T06:36:38.915Z,1.67
2019-03-04T06:39:08.845Z,1.77
2019-03-04T06:41:37.841Z,1.90
2019-03-04T06:44:06.919Z,3.83
2019-03-04T06:46:36.394Z,2.63
2019-03-04T06:49:06.173Z,2.07
2019-03-04T06:51:40.528Z,2.17
2019-03-04T06:54:42.944Z,3.30
2019-03-04T06:57:32.324Z,1.50
2019-03-04T07:00:37.114Z,3.37
2019-03-04T07:03:13.790Z,1.70
2019-03-04T07:05:52.976Z,1.20
2019-03-04T07:09:04.519Z,1.87
2019-03-04T07:11:33.793Z,1.20
2019-03-04T07:14:02.761Z,1.23
2019-03-04T07:16:32.214Z,2.03
2019-03-04T07:19:02.340Z,1.00
2019-03-04T07:21:31.100Z,1.30
2019-03-04T07:24:00.563Z,2.10
2019-03-04T07:26:29.904Z,2.77
2019-03-04T07:28:58.772Z,2.87
2019-03-04T07:31:27.551Z,2.73
2019-03-04T07:33:56.495Z,1.83
2019-03-04T07:36:25.429Z,2.10
2019-03-04T07:38:58.984Z,1.57
2019-03-04T07:41:30.875Z,1.63
2019-03-04T07:43:59.800Z,1.23
2019-03-04T07:46:29.507Z,1.40
2019-03-04T07:48:58.360Z,1.10
2019-03-04T07:51:27.348Z,1.30
2019-03-04T07:53:56.445Z,1.70
2019-03-04T07:56:25.316Z,1.70
2019-03-04T07:58:54.152Z,2.90
2019-03-04T08:01:22.893Z,2.43
2019-03-04T08:03:51.988Z,1.40
2019-03-04T08:06:21.185Z,1.90
2019-03-04T08:09:26.117Z,1.37
2019-03-04T08:12:50.592Z,1.60
2019-03-04T08:15:19.752Z,1.47
2019-03-04T08:17:48.485Z,3.13
2019-03-04T08:20:18.308Z,1.40
2019-03-04T08:22:48.247Z,1.43
2019-03-04T08:25:17.756Z,1.40
2019-03-04T08:27:46.929Z,1.57
2019-03-04T08:30:19.815Z,1.37
2019-03-04T08:32:48.697Z,1.30
2019-03-04T08:35:18.313Z,1.17
2019-03-04T08:37:48.128Z,1.23
2019-03-04T08:40:17.456Z,2.80
2019-03-04T08:42:47.044Z,1.53
2019-03-04T08:45:17.628Z,1.90
2019-03-04T08:47:46.760Z,1.77
2019-03-04T08:50:15.733Z,2.70
2019-03-04T08:52:44.717Z,2.30
2019-03-04T08:55:15.010Z,2.53
2019-03-04T08:57:45.052Z,1.23
2019-03-04T09:00:22.310Z,2.10
2019-03-04T09:02:51.373Z,3.20
2019-03-04T09:05:20.455Z,1.20
2019-03-04T09:07:49.340Z,1.37
2019-03-04T09:10:23.636Z,0.93
2019-03-04T09:12:52.572Z,0.70
2019-03-04T09:15:22.269Z,0.23
2019-03-04T09:17:51.088Z,0.53
2019-03-04T09:20:21.836Z,0.27
2019-03-04T09:22:50.770Z,1.10
2019-03-04T09:25:31.172Z,0.40
2019-03-04T09:28:00.456Z,1.30
2019-03-04T09:30:29.200Z,1.43
2019-03-04T09:32:58.121Z,0.20
2019-03-04T09:35:26.984Z,1.17
2019-03-04T09:37:55.876Z,0.40
2019-03-04T09:40:24.916Z,0.47
2019-03-04T09:42:53.737Z,0.30
2019-03-04T09:45:22.632Z,0.57
2019-03-04T09:47:51.451Z,0.63
2019-03-04T09:50:20.663Z,1.03
2019-03-04T09:52:49.765Z,0.47
2019-03-04T09:55:19.288Z,0.30
2019-03-04T09:57:48.085Z,0.30
2019-03-04T10:00:41.743Z,0.30
2019-03-04T10:03:38.023Z,0.77
2019-03-04T10:06:24.120Z,0.83
2019-03-04T10:09:41.900Z,1.13
2019-03-04T10:12:28.604Z,0.63
2019-03-04T10:15:20.479Z,1.03
2019-03-04T10:18:18.389Z,1.60
2019-03-04T10:20:56.692Z,0.30
2019-03-04T10:24:02.148Z,0.40
2019-03-04T10:27:01.204Z,1.33
2019-03-04T10:30:12.835Z,0.50
2019-03-04T10:33:18.452Z,1.50
2019-03-04T10:36:09.224Z,4.60
2019-03-04T10:39:12.923Z,1.00
2019-03-04T10:42:20.237Z,1.23
2019-03-04T10:45:04.381Z,0.63
2019-03-04T10:47:33.205Z,1.23
2019-03-04T10:50:01.971Z,0.80
2019-03-04T10:52:30.813Z,0.83
2019-03-04T10:54:59.920Z,1.67
2019-03-04T10:57:28.744Z,3.80
2019-03-04T10:59:57.472Z,1.10
2019-03-04T11:02:26.340Z,2.93
2019-03-04T11:04:55.109Z,1.00
2019-03-04T11:07:23.951Z,0.97
2019-03-04T11:09:52.956Z,1.17
2019-03-04T11:12:21.808Z,1.17
2019-03-04T11:14:50.682Z,1.13
2019-03-04T11:17:19.535Z,1.10
2019-03-04T11:19:48.256Z,1.60
2019-03-04T11:22:17.088Z,0.53
2019-03-04T11:24:45.913Z,0.73
2019-03-04T11:27:14.752Z,1.63
2019-03-04T11:29:43.764Z,0.77
2019-03-04T11:32:12.998Z,1.23
2019-03-04T11:34:42.748Z,1.27
2019-03-04T11:37:11.944Z,1.43
2019-03-04T11:39:52.237Z,0.70
2019-03-04T11:42:21.124Z,1.23
2019-03-04T11:44:49.845Z,2.70
2019-03-04T11:47:22.611Z,2.30
2019-03-04T11:49:53.370Z,1.07
2019-03-04T11:52:23.328Z,1.90
2019-03-04T11:54:52.152Z,1.60
2019-03-04T11:57:21.107Z,1.23
2019-03-04T11:59:50.224Z,0.70
2019-03-04T12:02:23.384Z,1.27
2019-03-04T12:04:52.225Z,0.30
2019-03-04T12:07:22.333Z,0.73
2019-03-04T12:09:51.274Z,0.50
2019-03-04T12:12:20.823Z,0.50
2019-03-04T12:14:49.697Z,0.57
2019-03-04T12:17:18.444Z,0.50
2019-03-04T12:19:47.373Z,0.60
2019-03-04T12:22:16.177Z,0.63
2019-03-04T12:24:45.357Z,0.60
2019-03-04T12:27:14.228Z,1.07
2019-03-04T12:29:43.323Z,0.80
2019-03-04T12:32:20.239Z,1.00
2019-03-04T12:34:49.064Z,1.30
2019-03-04T12:37:17.955Z,1.37
2019-03-04T12:39:46.752Z,1.53
2019-03-04T12:42:16.471Z,1.50
2019-03-04T12:44:45.307Z,1.70
2019-03-04T12:47:16.343Z,0.93
2019-03-04T12:49:45.381Z,3.40
2019-03-04T12:52:14.376Z,1.17
2019-03-04T12:54:43.227Z,0.80
2019-03-04T12:57:12.048Z,0.60
2019-03-04T12:59:41.008Z,1.10
2019-03-04T13:02:10.324Z,0.80
2019-03-04T13:04:39.060Z,1.50
2019-03-04T13:07:08.932Z,0.70
2019-03-04T13:09:38.152Z,0.70
2019-03-04T13:12:07.234Z,0.70
2019-03-04T13:14:36.192Z,1.20
2019-03-04T13:17:05.240Z,0.90
2019-03-04T13:19:34.117Z,2.37
2019-03-04T13:22:08.510Z,0.70
2019-03-04T13:24:33.448Z,1.10
2019-03-04T13:27:04.339Z,0.80
2019-03-04T13:29:33.275Z,0.80
2019-03-04T13:32:02.080Z,1.60
2019-03-04T13:34:30.825Z,0.80
2019-03-04T13:37:02.129Z,0.93
2019-03-04T13:39:31.188Z,0.67
2019-03-04T13:42:00.494Z,1.70
2019-03-04T13:44:29.468Z,0.63
2019-03-04T13:46:58.581Z,1.93
2019-03-04T13:49:27.498Z,0.90
2019-03-04T13:51:56.324Z,1.33
2019-03-04T13:54:25.225Z,0.80
2019-03-04T13:56:54.063Z,2.23
2019-03-04T13:59:22.900Z,3.07
2019-03-04T14:01:51.936Z,1.70
2019-03-04T14:04:20.812Z,1.00
2019-03-04T14:06:49.544Z,1.63
2019-03-04T14:09:20.925Z,0.90
2019-03-04T14:11:49.945Z,1.70
2019-03-04T14:14:18.748Z,0.70
2019-03-04T14:16:48.132Z,0.97
2019-03-04T14:19:17.008Z,0.83
2019-03-04T14:21:45.916Z,1.70
2019-03-04T14:24:14.803Z,0.83
2019-03-04T14:26:43.724Z,2.07
2019-03-04T14:29:12.440Z,0.67
2019-03-04T14:31:41.286Z,1.73
2019-03-04T14:34:10.143Z,1.50
2019-03-04T14:36:38.855Z,2.13
2019-03-04T14:39:13.284Z,1.37
2019-03-04T14:41:42.069Z,1.67
2019-03-04T14:44:11.248Z,1.43
2019-03-04T14:46:40.147Z,0.80
2019-03-04T14:49:09.000Z,2.00
2019-03-04T14:51:38.126Z,0.87
2019-03-04T14:54:08.608Z,1.77
2019-03-04T14:56:37.789Z,2.60
2019-03-04T14:59:10.949Z,0.83
2019-03-04T15:01:37.800Z,1.43
2019-03-04T15:04:06.627Z,1.27
2019-03-04T15:06:35.832Z,1.73
2019-03-04T15:09:07.950Z,1.32
2019-03-04T15:11:36.748Z,1.98
2019-03-04T15:14:05.922Z,2.17
2019-03-04T15:16:35.324Z,1.33
2019-03-04T15:19:04.424Z,1.57
2019-03-04T15:21:33.652Z,1.73
2019-03-04T15:24:03.555Z,2.63
2019-03-04T15:26:41.785Z,3.00
2019-03-04T15:29:03.451Z,0.60
2019-03-04T15:31:32.196Z,1.50
2019-03-04T15:34:01.396Z,2.67
2019-03-04T15:36:30.555Z,1.37
2019-03-04T15:39:00.035Z,2.10
2019-03-04T15:41:30.356Z,1.50
2019-03-04T15:44:01.723Z,2.40
2019-03-04T15:46:30.535Z,1.67
2019-03-04T15:48:59.636Z,0.70
2019-03-04T15:51:31.760Z,0.70
2019-03-04T15:54:00.820Z,1.23
2019-03-04T15:56:29.680Z,3.47
2019-03-04T15:58:59.232Z,2.17
2019-03-04T16:01:47.263Z,4.07
2019-03-04T16:04:16.316Z,2.47
2019-03-04T16:06:45.285Z,1.50
2019-03-04T16:09:17.921Z,1.40
2019-03-04T16:11:47.032Z,2.63
2019-03-04T16:14:15.896Z,1.43
2019-03-04T16:16:44.816Z,1.73
2019-03-04T16:19:14.114Z,1.77
2019-03-04T16:21:43.457Z,6.20
2019-03-04T16:24:13.072Z,4.80
2019-03-04T16:26:42.095Z,2.57
2019-03-04T16:29:11.082Z,1.87
2019-03-04T16:31:41.033Z,2.77
2019-03-04T16:34:10.591Z,3.23
2019-03-04T16:36:39.593Z,1.97
2019-03-04T16:39:27.830Z,3.37
2019-03-04T16:41:56.692Z,3.27
2019-03-04T16:44:25.688Z,3.40
2019-03-04T16:46:56.588Z,5.20
2019-03-04T16:49:25.487Z,4.63
2019-03-04T16:51:54.447Z,2.10
2019-03-04T16:54:23.279Z,6.57
2019-03-04T16:56:52.584Z,3.03
2019-03-04T16:59:21.903Z,3.57
2019-03-04T17:01:50.923Z,3.67
2019-03-04T17:04:19.784Z,3.67
2019-03-04T17:06:49.004Z,4.33
2019-03-04T17:09:19.472Z,4.73
2019-03-04T17:11:48.900Z,3.63
2019-03-04T17:14:18.124Z,5.27
2019-03-04T17:16:47.124Z,3.00
2019-03-04T17:19:16.667Z,5.73
2019-03-04T17:21:45.672Z,10.43
2019-03-04T17:24:14.813Z,6.97
2019-03-04T17:26:44.263Z,8.67
2019-03-04T17:29:15.048Z,8.20
2019-03-04T17:31:44.125Z,5.57
2019-03-04T17:34:12.895Z,7.83
2019-03-04T17:36:41.870Z,9.07
2019-03-04T17:39:11.219Z,7.10
2019-03-04T17:41:40.336Z,6.63
2019-03-04T17:44:09.310Z,7.43
2019-03-04T17:46:38.216Z,5.63
2019-03-04T17:49:07.221Z,7.87
2019-03-04T17:51:36.288Z,9.13
2019-03-04T17:54:05.496Z,13.17
2019-03-04T17:56:35.438Z,11.03
2019-03-04T17:59:04.573Z,10.47
2019-03-04T18:01:33.439Z,4.77
2019-03-04T18:04:02.234Z,6.27
2019-03-04T18:06:31.111Z,8.23
2019-03-04T18:09:00.707Z,8.77
2019-03-04T18:11:29.576Z,12.20
2019-03-04T18:13:58.601Z,6.73
2019-03-04T18:16:27.557Z,8.53
2019-03-04T18:18:56.386Z,10.30
2019-03-04T18:21:25.358Z,7.97
2019-03-04T18:23:54.156Z,7.43
2019-03-04T18:26:26.819Z,9.13
2019-03-04T18:29:07.897Z,6.73
2019-03-04T18:32:24.002Z,12.13
2019-03-04T18:35:15.891Z,7.00
2019-03-04T18:38:34.752Z,8.80
2019-03-04T18:41:27.709Z,8.47
2019-03-04T18:44:45.981Z,9.07
2019-03-04T18:47:46.724Z,9.77
2019-03-04T18:50:15.767Z,6.53
2019-03-04T18:52:44.568Z,4.63
2019-03-04T18:55:13.915Z,5.73
2019-03-04T18:57:42.719Z,9.17
2019-03-04T19:00:14.226Z,14.87
2019-03-04T19:02:43.228Z,12.30
2019-03-04T19:05:13.260Z,9.17
2019-03-04T19:07:42.218Z,5.30
2019-03-04T19:10:11.128Z,14.80
2019-03-04T19:12:40.426Z,12.60
2019-03-04T19:15:09.670Z,10.53
2019-03-04T19:17:38.458Z,5.83
2019-03-04T19:20:10.064Z,9.60
2019-03-04T19:22:40.275Z,8.03
2019-03-04T19:25:09.427Z,8.33
2019-03-04T19:27:38.172Z,4.40
2019-03-04T19:30:07.924Z,5.17
2019-03-04T19:32:36.719Z,6.80
2019-03-04T19:35:06.661Z,9.10
2019-03-04T19:37:35.603Z,7.13
2019-03-04T19:40:06.318Z,9.70
2019-03-04T19:42:35.713Z,7.37
2019-03-04T19:45:05.577Z,7.25
2019-03-04T19:47:34.509Z,6.27
2019-03-04T19:50:05.164Z,13.33
2019-03-04T19:52:33.980Z,5.90
2019-03-04T19:55:02.930Z,5.90
2019-03-04T19:57:31.918Z,9.23
2019-03-04T20:00:00.837Z,6.40
2019-03-04T20:02:29.836Z,6.17
2019-03-04T20:04:58.809Z,7.77
2019-03-04T20:07:28.228Z,5.37
2019-03-04T20:09:57.223Z,5.50
2019-03-04T20:12:27.972Z,7.43
2019-03-04T20:14:56.637Z,11.93
2019-03-04T20:17:25.753Z,6.43
2019-03-04T20:19:54.700Z,5.13
2019-03-04T20:22:23.586Z,3.30
2019-03-04T20:24:52.992Z,5.37
2019-03-04T20:27:21.835Z,5.13
2019-03-04T20:29:50.988Z,6.07
2019-03-04T20:32:19.793Z,4.87
2019-03-04T20:34:48.884Z,3.73
2019-03-04T20:37:17.777Z,3.03
2019-03-04T20:39:47.116Z,3.70
2019-03-04T20:42:15.992Z,4.17
2019-03-04T20:44:46.615Z,1.60
2019-03-04T20:47:15.485Z,5.33
2019-03-04T20:49:44.241Z,3.83
2019-03-04T20:52:12.996Z,4.37
2019-03-04T20:54:41.852Z,4.63
2019-03-04T20:57:10.949Z,6.07
2019-03-04T20:59:39.868Z,2.60
2019-03-04T21:02:09.007Z,7.80
2019-03-04T21:04:38.164Z,5.47
2019-03-04T21:07:07.231Z,2.87
2019-03-04T21:09:36.100Z,3.60
2019-03-04T21:12:05.493Z,3.63
2019-03-04T21:14:34.394Z,5.10
2019-03-04T21:17:03.717Z,3.37
2019-03-04T21:19:32.530Z,2.40
2019-03-04T21:22:01.368Z,4.93
2019-03-04T21:24:30.304Z,5.73
2019-03-04T21:26:59.279Z,5.50
2019-03-04T21:30:13.706Z,3.37
2019-03-04T21:32:49.392Z,4.57
2019-03-04T21:35:49.067Z,5.73
2019-03-04T21:38:18.303Z,3.80
2019-03-04T21:41:37.167Z,5.40
2019-03-04T21:44:36.769Z,2.77
2019-03-04T21:47:22.394Z,4.00
2019-03-04T21:49:53.296Z,4.20
2019-03-04T21:52:35.678Z,3.50
2019-03-04T21:55:07.864Z,3.53
2019-03-04T21:57:43.532Z,2.70
2019-03-04T22:00:16.728Z,4.60
2019-03-04T22:03:19.403Z,12.43
2019-03-04T22:05:50.622Z,3.03
2019-03-04T22:08:19.517Z,5.80
2019-03-04T22:10:49.137Z,4.33
2019-03-04T22:13:18.632Z,5.93
2019-03-04T22:15:47.560Z,4.20
2019-03-04T22:18:16.440Z,3.60
2019-03-04T22:20:45.323Z,3.57
2019-03-04T22:23:14.131Z,11.50
2019-03-04T22:25:42.927Z,4.60
2019-03-04T22:28:11.978Z,6.50
2019-03-04T22:30:41.300Z,2.87
2019-03-04T22:33:10.431Z,3.17
2019-03-04T22:35:39.398Z,1.90
2019-03-04T22:38:08.158Z,3.53
2019-03-04T22:40:37.160Z,6.80
2019-03-04T22:43:06.052Z,3.67
2019-03-04T22:45:34.764Z,7.17
2019-03-04T22:48:03.729Z,5.27
2019-03-04T22:50:32.720Z,2.47
2019-03-04T22:53:01.883Z,4.00
2019-03-04T22:55:32.886Z,5.80
2019-03-04T22:58:01.640Z,6.27
2019-03-04T23:01:27.781Z,3.60
2019-03-04T23:04:04.760Z,4.90
2019-03-04T23:06:34.124Z,10.53
2019-03-04T23:09:03.382Z,9.27
2019-03-04T23:11:32.456Z,8.67
2019-03-04T23:14:11.769Z,7.43
2019-03-04T23:16:40.754Z,7.53
2019-03-04T23:19:09.693Z,10.27
2019-03-04T23:21:38.574Z,6.63
2019-03-04T23:24:08.372Z,8.60
2019-03-04T23:26:37.104Z,9.20
2019-03-04T23:29:06.007Z,6.67
2019-03-04T23:31:35.112Z,6.03
2019-03-04T23:34:04.032Z,6.30
2019-03-04T23:36:32.899Z,6.33
2019-03-04T23:39:01.714Z,6.93
2019-03-04T23:41:30.611Z,8.40
2019-03-04T23:43:59.775Z,6.30
2019-03-04T23:46:28.587Z,5.07
2019-03-04T23:48:57.406Z,7.40
2019-03-04T23:51:26.864Z,8.27
2019-03-04T23:53:55.763Z,8.77
2019-03-04T23:56:24.592Z,4.80
2019-03-04T23:58:53.456Z,4.93
